Aeroporto :
LOGIN :

Iscrizione | Disclaimer

   EN    FR    IT 

 










Sommario :    VFR   VFR Marginale   IFR   IFR Intensivo   IFR Molto Intensivo
Visibilità : 
Base nubi : 
>= 8 km
>= 3000ft
5 / 8 km
1000 / 3000 ft
1500m / 5 km
500 / 1000 ft
800 / 1500m
200 / 500 ft
< 800m
< 200 ft
Simboli :   Temporali  Nebbia  Neve Forte  Precipitazioni Forti  Vento > 20 kt
SIGMETs :   Varie  Temporali  Ghiacco  Turbolenza  Onda orograficha  Ceneri Vulcaniche







- Altitudine del aeroporto : 220 ft
- Codice IATA : CWL
- Carte del aeroporto


EGFF - Cardiff Rhoose

ULTIMO METAR :
  • 190750Z AUTO 27005KT 7000 OVC002 08/08 Q1026

METARs OBSOLETI :
  • 190720Z AUTO 27004KT 4600 BR OVC002 08/08 Q1026
  • 190650Z AUTO 27003KT 0750 R30/1300 FG OVC001 08/08 Q1026
  • 190620Z AUTO 25003KT 2700 BR BKN001 08/08 Q1026
  • 190550Z AUTO 26004KT 0500 R30/P1500 FG VV/// 08/08 Q1025
  • 190520Z AUTO 29005KT 0900 R30/P1500 FG OVC002 08/08 Q1025
  • 190450Z AUTO 27005KT 1800 BR OVC001 08/08 Q1025

TAF AMD TAF EGFF
Valido dal 19 a 06 ore il 20 a 06 ore UTC


190547Z 1906/2006 27007KT 0300 FG BKN001
TEMPO 1906/1907 1800 BR BKN002
BECMG 1907/1910 9999 NSW FEW015 SCT025
PROB30
TEMPO 1910/1918 BKN014
BECMG 1918/1921 BKN006
TEMPO 1921/2006 3000 -DZ BR BKN003
PROB30 1923/2006 0300 FG BKN001
ATIS : +44 1446 729 319
Nessun NOTAM noto per questo aeroporto.



MetMap, La meteo Aeronautica in un colpo d'occhio ! - Copyright ORBIFLY Dicembre 2007 - Disclaimer

ORBIFLY MET'MAP TEAM :

Programmazione e sviluppo : Alexandra Zaïnal
Concezione e sviluppo : Baudouin d'Aumeries
Co-Programmazione e sviluppo : Marc-Olivier Méhu
Supporto tecnico e logistico : Manuel Goepfert
Aiuto per la traduzione : Arnaldo La Scala

Contatto : metmap@orbifly.com




FONTI E CREDITI :

   NOAA